Diablo — WDG2170 — position and weather

sailwx.info

Track history (hours):
 
Tides and Currents Weather Stations Pressure Air Temp Water Temp Dewpoint Dewpoint Depression Visibility Wind Speed Wind Dir Waves Ship Positions

Diablo

Owner: Harley Marine Services, Inc, Seattle, WA. More information available from US FCC via Universal Licensing System and Coast Guard Vessel Documentation Center.

Last reported at 2018-Feb-23 09:13 UTC. Time now 2018-Feb-23 14:46 UTC.
Position N 29°45' W 095°06'.

Length 24 m; draft 2.6 m.

Type: Tug. MMSI: 367512880.

Date/timePositionNaut miles runAvg speedWind from/ knotsBaromVisibWave heightAir tempDewpointWater temp
2018-Feb-23 09:13N 29°45' W 095°06'2 0.0
2018-Feb-22 00:59N 29°47' W 095°06'1 1.4
2018-Feb-22 00:26N 29°46' W 095°06'2 3.8
2018-Feb-22 00:00N 29°45' W 095°04'3 6.7
2018-Feb-21 23:29N 29°43' W 095°01'3 6.6
2018-Feb-21 23:00N 29°41' W 094°59'4 7.4
2018-Feb-21 22:30N 29°37' W 094°57'3 6.4
2018-Feb-21 22:00N 29°37' W 095°01'11 0.6
2018-Feb-21 03:15N 29°47' W 095°06'0 0.0
2018-Feb-21 00:41N 29°47' W 095°06'0 0.1
2018-Feb-21 00:22N 29°47' W 095°06'1 2.7
2018-Feb-21 00:00N 29°46' W 095°05'4 7.3
2018-Feb-20 23:30N 29°44' W 095°02'5 1.2
2018-Feb-20 19:39N 29°47' W 095°06'0 0.3
2018-Feb-20 19:21N 29°47' W 095°06'0 0.5
2018-Feb-20 18:57N 29°46' W 095°06'2 3.0
2018-Feb-20 18:25N 29°46' W 095°04'3 6.6
2018-Feb-20 18:00N 29°44' W 095°02'4 7.5
2018-Feb-20 17:30N 29°41' W 094°59'4 8.4
2018-Feb-20 17:00N 29°37' W 094°57'3 5.0
2018-Feb-20 16:30N 29°37' W 095°00'0 0.0
2018-Feb-20 16:00N 29°37' W 095°00'0 0.0
2018-Feb-20 15:30N 29°37' W 095°00'0 0.0
2018-Feb-20 15:00N 29°37' W 095°00'0 0.0
2018-Feb-20 14:30N 29°37' W 095°00'0 0.0
2018-Feb-20 14:00N 29°37' W 095°00'0 0.0
2018-Feb-20 13:30N 29°37' W 095°00'0 0.0
2018-Feb-20 13:00N 29°37' W 095°00'0 0.0
2018-Feb-20 11:50N 29°37' W 095°00'0 0.0
2018-Feb-20 11:09N 29°37' W 095°00'0 0.0
2018-Feb-20 10:59N 29°37' W 095°00'0 0.0
2018-Feb-20 10:30N 29°37' W 095°00'0 0.0
2018-Feb-20 10:00N 29°37' W 095°00'0 0.1
2018-Feb-20 09:30N 29°37' W 095°00'2 4.0
2018-Feb-20 09:00N 29°37' W 094°58'2 3.8
2018-Feb-20 08:21N 29°39' W 094°58'1 3.1
2018-Feb-20 08:00N 29°40' W 094°59'4 7.7
2018-Feb-20 07:30N 29°37' W 094°57'4 8.0
2018-Feb-20 07:00N 29°33' W 094°55'16 1.4
2018-Feb-19 19:52N 29°21' W 094°44'0 0.0
2018-Feb-19 19:27N 29°21' W 094°44'6 5.3
2018-Feb-19 18:20N 29°22' W 094°50'4 3.5
2018-Feb-19 17:11N 29°22' W 094°55'0 0.0
2018-Feb-19 14:01N 29°22' W 094°55'0 0.0
2018-Feb-19 13:58N 29°22' W 094°55'0 0.0
2018-Feb-19 08:22N 29°22' W 094°55'0 0.0
2018-Feb-19 07:55N 29°22' W 094°55'0 0.0
2018-Feb-19 07:28N 29°22' W 094°55'0 0.2
2018-Feb-19 06:50N 29°22' W 094°55'1 3.2
2018-Feb-19 06:28N 29°22' W 094°54'2 3.8
2018-Feb-19 06:00N 29°23' W 094°52'4 7.4
2018-Feb-19 05:30N 29°21' W 094°48'3 3.6
2018-Feb-19 04:47N 29°19' W 094°47'1 0.1
2018-Feb-18 19:50N 29°19' W 094°48'1 0.5
2018-Feb-18 18:22N 29°19' W 094°47'3 0.1
2018-Feb-17 07:54N 29°21' W 094°44'0 0.0
2018-Feb-17 07:27N 29°21' W 094°44'0 0.0
2018-Feb-17 06:57N 29°21' W 094°44'0 0.1
2018-Feb-17 05:00N 29°21' W 094°44'0 0.1
2018-Feb-17 04:06N 29°21' W 094°45'0 0.1
2018-Feb-17 03:54N 29°21' W 094°45'6 0.8
2018-Feb-16 20:11N 29°25' W 094°50'2 7.4
2018-Feb-16 19:57N 29°27' W 094°51'4 8.1
2018-Feb-16 19:30N 29°30' W 094°53'4 7.5
2018-Feb-16 18:59N 29°34' W 094°55'4 7.4
2018-Feb-16 18:29N 29°37' W 094°57'4 7.3
2018-Feb-16 18:00N 29°40' W 094°59'3 5.7
2018-Feb-16 17:30N 29°42' W 095°01'5 6.1
2018-Feb-16 16:38N 29°46' W 095°05'1 1.9
2018-Feb-16 16:14N 29°46' W 095°06'0 1.0
2018-Feb-16 16:00N 29°46' W 095°06'1 1.2
2018-Feb-16 15:30N 29°46' W 095°05'1 0.3
2018-Feb-16 11:38N 29°45' W 095°06'0 0.0
2018-Feb-16 11:27N 29°45' W 095°06'0 0.0
2018-Feb-16 10:53N 29°45' W 095°06'0 0.0
2018-Feb-16 10:28N 29°45' W 095°06'0 0.0
2018-Feb-16 09:19N 29°45' W 095°06'0 0.0
2018-Feb-16 08:58N 29°45' W 095°06'0 0.0
2018-Feb-16 08:19N 29°45' W 095°06'0 0.0
2018-Feb-16 07:59N 29°45' W 095°06'0 0.7
2018-Feb-16 07:31N 29°45' W 095°06'0 0.0
2018-Feb-16 07:01N 29°45' W 095°06'1 1.4
2018-Feb-16 06:31N 29°46' W 095°05'1 1.7
2018-Feb-16 06:00N 29°46' W 095°06'0 0.3
2018-Feb-16 05:23N 29°47' W 095°06'0 0.0
2018-Feb-16 04:54N 29°47' W 095°06'0 0.0
2018-Feb-16 04:30N 29°47' W 095°06'0 0.0
2018-Feb-16 03:58N 29°47' W 095°06'0 0.0
2018-Feb-16 03:30N 29°47' W 095°06'0 0.0
2018-Feb-16 02:57N 29°47' W 095°06'0 0.0
2018-Feb-16 02:29N 29°47' W 095°06'0 0.0
2018-Feb-16 02:00N 29°47' W 095°06'0 0.0
2018-Feb-16 01:31N 29°47' W 095°06'0 0.0
2018-Feb-16 00:59N 29°47' W 095°06'1 0.2
2018-Feb-15 17:11N 29°46' W 095°07'0 0.0
2018-Feb-15 14:26N 29°46' W 095°07'0 0.0
2018-Feb-15 13:34N 29°46' W 095°07'0 0.0
2018-Feb-15 11:59N 29°46' W 095°07'1 2.8
2018-Feb-15 11:30N 29°46' W 095°05'1 0.9
2018-Feb-15 10:27N 29°47' W 095°06'0 0.0
2018-Feb-15 10:00N 29°47' W 095°06'0 0.0
2018-Feb-15 09:24N 29°47' W 095°06'0 0.0
2018-Feb-15 08:59N 29°47' W 095°06'0 0.0
2018-Feb-15 08:30N 29°47' W 095°06'0 0.1
2018-Feb-15 07:57N 29°47' W 095°06'0 0.0
2018-Feb-15 07:30N 29°47' W 095°06'0 0.0
2018-Feb-15 06:58N 29°47' W 095°06'0 0.0
2018-Feb-15 06:30N 29°47' W 095°06'0 0.0
2018-Feb-15 06:00N 29°47' W 095°06'0 0.0
2018-Feb-15 05:30N 29°47' W 095°06'0 0.0
2018-Feb-15 05:00N 29°47' W 095°06'0 0.0
2018-Feb-15 04:30N 29°47' W 095°06'0 0.0
2018-Feb-15 04:00N 29°47' W 095°06'0 0.0
2018-Feb-15 03:09N 29°47' W 095°06'0 0.0
2018-Feb-15 03:00N 29°47' W 095°06'0 0.0
2018-Feb-15 02:19N 29°47' W 095°06'1 0.3
2018-Feb-14 23:37N 29°46' W 095°06'0 3.3
2018-Feb-14 23:30N 29°46' W 095°05'1 1.3
2018-Feb-14 22:56N 29°45' W 095°06'0 0.0
2018-Feb-14 22:28N 29°45' W 095°06'0 0.0
2018-Feb-14 21:56N 29°45' W 095°06'0 0.0
2018-Feb-14 21:30N 29°45' W 095°06'0 0.0
2018-Feb-14 20:52N 29°45' W 095°06'0 0.0
2018-Feb-14 20:30N 29°45' W 095°06'0 0.0
2018-Feb-14 19:58N 29°45' W 095°06'0 0.0
2018-Feb-14 19:27N 29°45' W 095°06'0 0.0
2018-Feb-14 18:59N 29°45' W 095°06'0 0.0
2018-Feb-14 18:30N 29°45' W 095°06'0 0.0
2018-Feb-14 18:00N 29°45' W 095°06'0 0.0
2018-Feb-14 17:28N 29°45' W 095°06'1 2.3
2018-Feb-14 16:59N 29°46' W 095°05'1 0.0
2018-Feb-13 12:18N 29°46' W 095°05'2 5.5
2018-Feb-13 11:54N 29°44' W 095°03'3 5.7
2018-Feb-13 11:28N 29°43' W 095°01'2 5.2
2018-Feb-13 11:00N 29°41' W 094°59'1 0.7
2018-Feb-13 10:05N 29°41' W 095°00'0 0.0
2018-Feb-13 09:53N 29°41' W 095°00'  
Track history (hours):
 
Tides and Currents Weather Stations Pressure Air Temp Water Temp Dewpoint Dewpoint Depression Visibility Wind Speed Wind Dir Waves Ship Positions

Diablo

Owner: Harley Marine Services, Inc, Seattle, WA. More information available from US FCC via Universal Licensing System and Coast Guard Vessel Documentation Center.

Last reported at 2018-Feb-23 09:13 UTC. Time now 2018-Feb-23 14:46 UTC.
Position N 29°45' W 095°06'.

Length 24 m; draft 2.6 m.

Type: Tug. MMSI: 367512880.

Date/timePositionNaut miles runAvg speedWind from/ knotsBaromVisibWave heightAir tempDewpointWater temp
2018-Feb-23 09:13N 29°45' W 095°06'2 0.0
2018-Feb-22 00:59N 29°47' W 095°06'1 1.4
2018-Feb-22 00:26N 29°46' W 095°06'2 3.8
2018-Feb-22 00:00N 29°45' W 095°04'3 6.7
2018-Feb-21 23:29N 29°43' W 095°01'3 6.6
2018-Feb-21 23:00N 29°41' W 094°59'4 7.4
2018-Feb-21 22:30N 29°37' W 094°57'3 6.4
2018-Feb-21 22:00N 29°37' W 095°01'11 0.6
2018-Feb-21 03:15N 29°47' W 095°06'0 0.0
2018-Feb-21 00:41N 29°47' W 095°06'0 0.1
2018-Feb-21 00:22N 29°47' W 095°06'1 2.7
2018-Feb-21 00:00N 29°46' W 095°05'4 7.3
2018-Feb-20 23:30N 29°44' W 095°02'5 1.2
2018-Feb-20 19:39N 29°47' W 095°06'0 0.3
2018-Feb-20 19:21N 29°47' W 095°06'0 0.5
2018-Feb-20 18:57N 29°46' W 095°06'2 3.0
2018-Feb-20 18:25N 29°46' W 095°04'3 6.6
2018-Feb-20 18:00N 29°44' W 095°02'4 7.5
2018-Feb-20 17:30N 29°41' W 094°59'4 8.4
2018-Feb-20 17:00N 29°37' W 094°57'3 5.0
2018-Feb-20 16:30N 29°37' W 095°00'0 0.0
2018-Feb-20 16:00N 29°37' W 095°00'0 0.0
2018-Feb-20 15:30N 29°37' W 095°00'0 0.0
2018-Feb-20 15:00N 29°37' W 095°00'0 0.0
2018-Feb-20 14:30N 29°37' W 095°00'0 0.0
2018-Feb-20 14:00N 29°37' W 095°00'0 0.0
2018-Feb-20 13:30N 29°37' W 095°00'0 0.0
2018-Feb-20 13:00N 29°37' W 095°00'0 0.0
2018-Feb-20 11:50N 29°37' W 095°00'0 0.0
2018-Feb-20 11:09N 29°37' W 095°00'0 0.0
2018-Feb-20 10:59N 29°37' W 095°00'0 0.0
2018-Feb-20 10:30N 29°37' W 095°00'0 0.0
2018-Feb-20 10:00N 29°37' W 095°00'0 0.1
2018-Feb-20 09:30N 29°37' W 095°00'2 4.0
2018-Feb-20 09:00N 29°37' W 094°58'2 3.8
2018-Feb-20 08:21N 29°39' W 094°58'1 3.1
2018-Feb-20 08:00N 29°40' W 094°59'4 7.7
2018-Feb-20 07:30N 29°37' W 094°57'4 8.0
2018-Feb-20 07:00N 29°33' W 094°55'16 1.4
2018-Feb-19 19:52N 29°21' W 094°44'0 0.0
2018-Feb-19 19:27N 29°21' W 094°44'6 5.3
2018-Feb-19 18:20N 29°22' W 094°50'4 3.5
2018-Feb-19 17:11N 29°22' W 094°55'0 0.0
2018-Feb-19 14:01N 29°22' W 094°55'0 0.0
2018-Feb-19 13:58N 29°22' W 094°55'0 0.0
2018-Feb-19 08:22N 29°22' W 094°55'0 0.0
2018-Feb-19 07:55N 29°22' W 094°55'0 0.0
2018-Feb-19 07:28N 29°22' W 094°55'0 0.2
2018-Feb-19 06:50N 29°22' W 094°55'1 3.2
2018-Feb-19 06:28N 29°22' W 094°54'2 3.8
2018-Feb-19 06:00N 29°23' W 094°52'4 7.4
2018-Feb-19 05:30N 29°21' W 094°48'3 3.6
2018-Feb-19 04:47N 29°19' W 094°47'1 0.1
2018-Feb-18 19:50N 29°19' W 094°48'1 0.5
2018-Feb-18 18:22N 29°19' W 094°47'3 0.1
2018-Feb-17 07:54N 29°21' W 094°44'0 0.0
2018-Feb-17 07:27N 29°21' W 094°44'0 0.0
2018-Feb-17 06:57N 29°21' W 094°44'0 0.1
2018-Feb-17 05:00N 29°21' W 094°44'0 0.1
2018-Feb-17 04:06N 29°21' W 094°45'0 0.1
2018-Feb-17 03:54N 29°21' W 094°45'6 0.8
2018-Feb-16 20:11N 29°25' W 094°50'2 7.4
2018-Feb-16 19:57N 29°27' W 094°51'4 8.1
2018-Feb-16 19:30N 29°30' W 094°53'4 7.5
2018-Feb-16 18:59N 29°34' W 094°55'4 7.4
2018-Feb-16 18:29N 29°37' W 094°57'4 7.3
2018-Feb-16 18:00N 29°40' W 094°59'3 5.7
2018-Feb-16 17:30N 29°42' W 095°01'5 6.1
2018-Feb-16 16:38N 29°46' W 095°05'1 1.9
2018-Feb-16 16:14N 29°46' W 095°06'0 1.0
2018-Feb-16 16:00N 29°46' W 095°06'1 1.2
2018-Feb-16 15:30N 29°46' W 095°05'1 0.3
2018-Feb-16 11:38N 29°45' W 095°06'0 0.0
2018-Feb-16 11:27N 29°45' W 095°06'0 0.0
2018-Feb-16 10:53N 29°45' W 095°06'0 0.0
2018-Feb-16 10:28N 29°45' W 095°06'0 0.0
2018-Feb-16 09:19N 29°45' W 095°06'0 0.0
2018-Feb-16 08:58N 29°45' W 095°06'0 0.0
2018-Feb-16 08:19N 29°45' W 095°06'0 0.0
2018-Feb-16 07:59N 29°45' W 095°06'0 0.7
2018-Feb-16 07:31N 29°45' W 095°06'0 0.0
2018-Feb-16 07:01N 29°45' W 095°06'1 1.4
2018-Feb-16 06:31N 29°46' W 095°05'1 1.7
2018-Feb-16 06:00N 29°46' W 095°06'0 0.3
2018-Feb-16 05:23N 29°47' W 095°06'0 0.0
2018-Feb-16 04:54N 29°47' W 095°06'0 0.0
2018-Feb-16 04:30N 29°47' W 095°06'0 0.0
2018-Feb-16 03:58N 29°47' W 095°06'0 0.0
2018-Feb-16 03:30N 29°47' W 095°06'0 0.0
2018-Feb-16 02:57N 29°47' W 095°06'0 0.0
2018-Feb-16 02:29N 29°47' W 095°06'0 0.0
2018-Feb-16 02:00N 29°47' W 095°06'0 0.0
2018-Feb-16 01:31N 29°47' W 095°06'0 0.0
2018-Feb-16 00:59N 29°47' W 095°06'1 0.2
2018-Feb-15 17:11N 29°46' W 095°07'0 0.0
2018-Feb-15 14:26N 29°46' W 095°07'0 0.0
2018-Feb-15 13:34N 29°46' W 095°07'0 0.0
2018-Feb-15 11:59N 29°46' W 095°07'1 2.8
2018-Feb-15 11:30N 29°46' W 095°05'1 0.9
2018-Feb-15 10:27N 29°47' W 095°06'0 0.0
2018-Feb-15 10:00N 29°47' W 095°06'0 0.0
2018-Feb-15 09:24N 29°47' W 095°06'0 0.0
2018-Feb-15 08:59N 29°47' W 095°06'0 0.0
2018-Feb-15 08:30N 29°47' W 095°06'0 0.1
2018-Feb-15 07:57N 29°47' W 095°06'0 0.0
2018-Feb-15 07:30N 29°47' W 095°06'0 0.0
2018-Feb-15 06:58N 29°47' W 095°06'0 0.0
2018-Feb-15 06:30N 29°47' W 095°06'0 0.0
2018-Feb-15 06:00N 29°47' W 095°06'0 0.0
2018-Feb-15 05:30N 29°47' W 095°06'0 0.0
2018-Feb-15 05:00N 29°47' W 095°06'0 0.0
2018-Feb-15 04:30N 29°47' W 095°06'0 0.0
2018-Feb-15 04:00N 29°47' W 095°06'0 0.0
2018-Feb-15 03:09N 29°47' W 095°06'0 0.0
2018-Feb-15 03:00N 29°47' W 095°06'0 0.0
2018-Feb-15 02:19N 29°47' W 095°06'1 0.3
2018-Feb-14 23:37N 29°46' W 095°06'0 3.3
2018-Feb-14 23:30N 29°46' W 095°05'1 1.3
2018-Feb-14 22:56N 29°45' W 095°06'0 0.0
2018-Feb-14 22:28N 29°45' W 095°06'0 0.0
2018-Feb-14 21:56N 29°45' W 095°06'0 0.0
2018-Feb-14 21:30N 29°45' W 095°06'0 0.0
2018-Feb-14 20:52N 29°45' W 095°06'0 0.0
2018-Feb-14 20:30N 29°45' W 095°06'0 0.0
2018-Feb-14 19:58N 29°45' W 095°06'0 0.0
2018-Feb-14 19:27N 29°45' W 095°06'0 0.0
2018-Feb-14 18:59N 29°45' W 095°06'0 0.0
2018-Feb-14 18:30N 29°45' W 095°06'0 0.0
2018-Feb-14 18:00N 29°45' W 095°06'0 0.0
2018-Feb-14 17:28N 29°45' W 095°06'1 2.3
2018-Feb-14 16:59N 29°46' W 095°05'1 0.0
2018-Feb-13 12:18N 29°46' W 095°05'2 5.5
2018-Feb-13 11:54N 29°44' W 095°03'3 5.7
2018-Feb-13 11:28N 29°43' W 095°01'2 5.2
2018-Feb-13 11:00N 29°41' W 094°59'1 0.7
2018-Feb-13 10:05N 29°41' W 095°00'0 0.0
2018-Feb-13 09:53N 29°41' W 095°00'  

Dump ship's entire track history